createdAt,value
2022-10-27T00:01:12.503Z,6.50
2022-10-27T00:03:41.483Z,4.70
2022-10-27T00:06:10.417Z,5.90
2022-10-27T00:08:38.986Z,5.75
2022-10-27T00:11:08.810Z,5.45
2022-10-27T00:13:37.915Z,4.13
2022-10-27T00:16:10.963Z,8.38
2022-10-27T00:18:39.437Z,4.65
2022-10-27T00:21:10.151Z,6.82
2022-10-27T00:23:39.111Z,4.82
2022-10-27T00:26:09.700Z,4.68
2022-10-27T00:28:38.068Z,8.52
2022-10-27T00:31:12.470Z,4.70
2022-10-27T00:33:41.009Z,3.33
2022-10-27T00:36:11.550Z,4.07
2022-10-27T00:38:40.135Z,6.75
2022-10-27T00:41:09.930Z,6.75
2022-10-27T00:43:41.058Z,4.95
2022-10-27T00:46:21.511Z,7.35
2022-10-27T00:48:53.479Z,4.38
2022-10-27T00:51:21.941Z,6.40
2022-10-27T00:53:51.758Z,5.28
2022-10-27T00:56:21.073Z,5.18
2022-10-27T00:58:49.852Z,3.70
2022-10-27T01:01:19.749Z,4.18
2022-10-27T01:03:48.262Z,4.50
2022-10-27T01:06:17.677Z,4.38
2022-10-27T01:08:46.669Z,2.78
2022-10-27T01:11:15.285Z,5.32
2022-10-27T01:13:43.630Z,6.32
2022-10-27T01:16:25.806Z,3.53
2022-10-27T01:19:05.796Z,6.65
2022-10-27T01:21:53.127Z,4.63
2022-10-27T01:24:51.796Z,4.60
2022-10-27T01:27:34.564Z,3.22
2022-10-27T01:30:08.139Z,4.82
2022-10-27T01:32:51.032Z,3.53
2022-10-27T01:35:27.757Z,3.88
2022-10-27T01:38:02.125Z,3.47
2022-10-27T01:40:34.352Z,6.65
2022-10-27T01:43:06.042Z,4.30
2022-10-27T01:45:37.776Z,5.90
2022-10-27T01:48:09.349Z,2.75
2022-10-27T01:50:57.252Z,3.78
2022-10-27T01:53:29.713Z,3.33
2022-10-27T01:56:13.497Z,3.17
2022-10-27T01:59:06.563Z,3.80
2022-10-27T02:01:46.752Z,4.95
2022-10-27T02:04:23.989Z,3.72
2022-10-27T02:07:00.493Z,4.57
2022-10-27T02:09:37.017Z,4.63
2022-10-27T02:12:10.753Z,4.13
2022-10-27T02:14:39.655Z,3.58
2022-10-27T02:17:11.201Z,3.58
2022-10-27T02:19:44.157Z,3.47
2022-10-27T02:22:14.018Z,2.92
2022-10-27T02:24:43.151Z,2.55
2022-10-27T02:27:14.860Z,3.15
2022-10-27T02:29:45.885Z,3.03
2022-10-27T02:32:18.454Z,2.47
2022-10-27T02:34:50.187Z,2.95
2022-10-27T02:37:21.431Z,2.88
2022-10-27T02:39:49.648Z,3.80
2022-10-27T02:42:17.914Z,2.97
2022-10-27T02:44:46.074Z,4.18
2022-10-27T02:47:14.225Z,9.80
2022-10-27T02:49:42.809Z,5.47
2022-10-27T02:52:13.633Z,6.47
2022-10-27T02:54:41.989Z,6.78
2022-10-27T02:57:10.488Z,3.88
2022-10-27T02:59:39.063Z,7.18
2022-10-27T03:02:07.305Z,3.92
2022-10-27T03:04:36.105Z,6.05
2022-10-27T03:07:04.958Z,3.55
2022-10-27T03:09:34.495Z,5.38
2022-10-27T03:12:03.064Z,5.43
2022-10-27T03:14:31.216Z,3.72
2022-10-27T03:16:59.389Z,5.43
2022-10-27T03:19:28.010Z,3.78
2022-10-27T03:21:56.161Z,4.75
2022-10-27T03:24:24.705Z,4.45
2022-10-27T03:26:54.221Z,5.00
2022-10-27T03:29:24.063Z,6.20
2022-10-27T03:31:52.286Z,5.45
2022-10-27T03:34:21.236Z,5.53
2022-10-27T03:36:49.603Z,3.72
2022-10-27T03:39:17.748Z,5.00
2022-10-27T03:41:46.290Z,4.05
2022-10-27T03:44:15.802Z,8.05
2022-10-27T03:46:43.937Z,4.03
2022-10-27T03:49:12.142Z,8.13
2022-10-27T03:51:40.279Z,4.55
2022-10-27T03:54:08.433Z,4.57
2022-10-27T03:56:37.049Z,6.82
2022-10-27T03:59:05.796Z,6.78
2022-10-27T04:01:36.737Z,4.03
2022-10-27T04:04:05.552Z,4.32
2022-10-27T04:06:33.713Z,5.07
2022-10-27T04:09:01.937Z,3.63
2022-10-27T04:11:30.954Z,3.65
2022-10-27T04:13:59.141Z,5.88
2022-10-27T04:16:27.705Z,4.22
2022-10-27T04:18:57.261Z,5.65
2022-10-27T04:21:25.955Z,8.38
2022-10-27T04:23:54.123Z,5.85
2022-10-27T04:26:22.727Z,5.15
2022-10-27T04:28:50.993Z,3.55
2022-10-27T04:31:19.285Z,4.97
2022-10-27T04:33:47.901Z,8.57
2022-10-27T04:36:17.411Z,6.03
2022-10-27T04:38:46.043Z,6.63
2022-10-27T04:41:14.164Z,5.32
2022-10-27T04:43:42.401Z,6.95
2022-10-27T04:46:10.644Z,7.70
2022-10-27T04:48:39.279Z,5.13
2022-10-27T04:51:07.543Z,5.38
2022-10-27T04:53:37.083Z,5.05
2022-10-27T04:56:05.851Z,5.70
2022-10-27T04:58:33.974Z,6.93
2022-10-27T05:01:08.408Z,8.60
2022-10-27T05:03:36.984Z,9.30
2022-10-27T05:06:06.497Z,8.27
2022-10-27T05:08:36.205Z,8.70
2022-10-27T05:11:04.796Z,9.20
2022-10-27T05:13:32.933Z,8.82
2022-10-27T05:16:02.191Z,9.40
2022-10-27T05:18:30.998Z,12.05
2022-10-27T05:20:59.159Z,20.35
2022-10-27T05:23:27.319Z,24.00
2022-10-27T05:25:57.891Z,18.83
2022-10-27T05:28:26.544Z,14.75
2022-10-27T05:30:58.654Z,19.20
2022-10-27T05:33:28.188Z,24.40
2022-10-27T05:35:56.413Z,31.77
2022-10-27T05:38:25.065Z,36.55
2022-10-27T05:40:57.922Z,33.63
2022-10-27T05:43:26.635Z,26.55
2022-10-27T05:45:55.277Z,22.33
2022-10-27T05:48:23.676Z,20.45
2022-10-27T05:50:54.755Z,14.57
2022-10-27T05:53:23.011Z,12.95
2022-10-27T05:55:54.657Z,12.98
2022-10-27T05:58:24.269Z,15.93
2022-10-27T06:00:52.850Z,13.90
2022-10-27T06:03:23.515Z,16.10
2022-10-27T06:05:52.266Z,15.05
2022-10-27T06:08:21.320Z,17.60
2022-10-27T06:10:49.568Z,16.95
2022-10-27T06:13:19.019Z,14.27
2022-10-27T06:15:48.548Z,11.18
2022-10-27T06:18:17.454Z,11.88
2022-10-27T06:20:45.608Z,15.13
2022-10-27T06:23:14.349Z,8.82
2022-10-27T06:25:42.605Z,9.77
2022-10-27T06:28:11.028Z,9.68
2022-10-27T06:30:39.696Z,7.45
2022-10-27T06:33:09.191Z,8.63
2022-10-27T06:35:37.796Z,7.82
2022-10-27T06:38:05.956Z,7.85
2022-10-27T06:40:34.220Z,7.07
2022-10-27T06:43:06.593Z,7.07
2022-10-27T06:45:36.158Z,6.75
2022-10-27T06:48:05.344Z,6.18
2022-10-27T06:50:35.799Z,6.03
2022-10-27T06:53:04.966Z,5.88
2022-10-27T06:55:33.569Z,5.00
2022-10-27T06:58:02.412Z,5.07
2022-10-27T07:00:30.964Z,5.50
2022-10-27T07:02:59.734Z,4.80
2022-10-27T07:05:28.358Z,5.68
2022-10-27T07:07:57.882Z,5.00
2022-10-27T07:10:26.520Z,4.95
2022-10-27T07:12:56.304Z,4.10
2022-10-27T07:15:26.165Z,5.05
2022-10-27T07:17:59.720Z,5.70
2022-10-27T07:20:30.353Z,7.50
2022-10-27T07:22:59.941Z,6.40
2022-10-27T07:25:29.864Z,6.57
2022-10-27T07:27:58.546Z,6.72
2022-10-27T07:30:29.555Z,6.07
2022-10-27T07:32:59.241Z,6.45
2022-10-27T07:35:28.350Z,4.97
2022-10-27T07:37:57.027Z,5.03
2022-10-27T07:40:28.964Z,7.10
2022-10-27T07:43:06.544Z,5.70
2022-10-27T07:45:37.104Z,5.05
2022-10-27T07:48:06.358Z,6.68
2022-10-27T07:50:34.825Z,6.13
2022-10-27T07:53:03.968Z,4.78
2022-10-27T07:55:36.608Z,6.47
2022-10-27T07:58:06.434Z,7.10
2022-10-27T08:00:36.316Z,5.28
2022-10-27T08:03:06.571Z,5.57
2022-10-27T08:05:36.644Z,5.40
2022-10-27T08:08:07.044Z,8.25
2022-10-27T08:10:38.321Z,5.18
2022-10-27T08:13:08.336Z,5.18
2022-10-27T08:15:37.052Z,6.45
2022-10-27T08:18:05.611Z,6.38
2022-10-27T08:20:35.703Z,5.47
2022-10-27T08:23:05.936Z,6.53
2022-10-27T08:25:34.940Z,5.38
2022-10-27T08:28:05.080Z,6.25
2022-10-27T08:30:40.202Z,5.35
2022-10-27T08:33:14.457Z,5.85
2022-10-27T08:35:43.220Z,4.68
2022-10-27T08:38:14.153Z,5.28
2022-10-27T08:43:40.653Z,5.15
2022-10-27T08:46:16.356Z,7.30
2022-10-27T08:48:46.224Z,4.78
2022-10-27T08:51:18.811Z,5.20
2022-10-27T08:53:50.018Z,4.65
2022-10-27T08:56:18.509Z,6.38
2022-10-27T08:58:49.936Z,4.93
2022-10-27T09:01:27.977Z,5.82
2022-10-27T09:04:35.503Z,4.38
2022-10-27T09:07:16.453Z,5.07
2022-10-27T09:09:53.482Z,5.97
2022-10-27T09:13:00.386Z,8.95
2022-10-27T09:15:49.195Z,7.15
2022-10-27T09:18:23.775Z,6.28
2022-10-27T09:20:55.203Z,6.65
2022-10-27T09:23:29.547Z,4.75
2022-10-27T09:25:59.631Z,6.22
2022-10-27T09:28:34.465Z,6.57
2022-10-27T09:31:05.677Z,8.98
2022-10-27T09:33:36.940Z,6.68
2022-10-27T09:36:14.502Z,7.60
2022-10-27T09:38:43.179Z,8.45
2022-10-27T09:41:11.784Z,5.75
2022-10-27T09:43:40.006Z,10.20
2022-10-27T09:46:22.866Z,6.85
2022-10-27T09:48:53.695Z,4.70
2022-10-27T09:51:24.870Z,5.97
2022-10-27T09:53:54.257Z,4.47
2022-10-27T09:56:27.075Z,7.05
2022-10-27T09:59:02.938Z,4.10
2022-10-27T10:01:49.722Z,5.97
2022-10-27T10:04:22.769Z,5.80
2022-10-27T10:06:56.300Z,9.13
2022-10-27T10:09:28.385Z,7.82
2022-10-27T10:12:24.594Z,5.25
2022-10-27T10:14:54.466Z,9.35
2022-10-27T10:17:26.619Z,4.32
2022-10-27T10:19:56.510Z,8.23
2022-10-27T10:22:28.828Z,9.35
2022-10-27T10:25:00.481Z,7.82
2022-10-27T10:27:31.403Z,5.43
2022-10-27T10:30:03.237Z,5.32
2022-10-27T10:32:35.345Z,6.40
2022-10-27T10:35:04.537Z,4.65
2022-10-27T10:37:36.582Z,5.32
2022-10-27T10:40:19.796Z,9.48
2022-10-27T10:42:50.229Z,5.25
2022-10-27T10:45:21.401Z,7.13
2022-10-27T10:47:56.981Z,7.10
2022-10-27T10:50:25.743Z,6.72
2022-10-27T10:52:56.307Z,4.30
2022-10-27T10:55:29.804Z,8.95
2022-10-27T10:57:59.746Z,4.78
2022-10-27T11:00:28.972Z,9.10
2022-10-27T11:03:02.218Z,5.65
2022-10-27T11:05:33.512Z,8.32
2022-10-27T11:08:01.998Z,8.65
2022-10-27T11:10:34.490Z,7.25
2022-10-27T11:13:07.237Z,9.18
2022-10-27T11:15:40.430Z,4.93
2022-10-27T11:18:16.688Z,4.80
2022-10-27T11:20:48.392Z,5.30
2022-10-27T11:23:20.012Z,6.07
2022-10-27T11:25:49.977Z,6.32
2022-10-27T11:28:26.054Z,6.65
2022-10-27T11:31:02.594Z,4.60
2022-10-27T11:33:43.553Z,6.90
2022-10-27T11:36:18.190Z,7.18
2022-10-27T11:38:57.806Z,4.25
2022-10-27T11:41:32.745Z,7.22
2022-10-27T11:44:10.191Z,9.60
2022-10-27T11:46:44.372Z,7.75
2022-10-27T11:49:22.029Z,5.15
2022-10-27T11:51:54.753Z,5.53
2022-10-27T11:54:23.025Z,7.30
2022-10-27T11:57:11.352Z,4.25
2022-10-27T11:59:51.734Z,5.18
2022-10-27T12:02:39.085Z,4.60
2022-10-27T12:05:12.119Z,5.43
2022-10-27T12:07:53.391Z,3.80
2022-10-27T12:10:32.863Z,5.65
2022-10-27T12:13:06.046Z,4.78
2022-10-27T12:15:43.943Z,6.25
2022-10-27T12:18:20.464Z,9.15
2022-10-27T12:20:54.069Z,5.60
2022-10-27T12:23:26.482Z,5.07
2022-10-27T12:26:04.085Z,5.82
2022-10-27T12:28:33.928Z,4.60
2022-10-27T12:31:06.029Z,5.13
2022-10-27T12:33:40.436Z,4.30
2022-10-27T12:36:19.030Z,5.32
2022-10-27T12:38:53.132Z,3.92
2022-10-27T12:41:30.466Z,5.47
2022-10-27T12:44:10.270Z,5.15
2022-10-27T12:47:12.227Z,4.55
2022-10-27T12:49:46.582Z,4.80
2022-10-27T12:52:20.087Z,4.93
2022-10-27T12:55:13.543Z,3.53
2022-10-27T12:57:52.110Z,3.88
2022-10-27T13:00:21.846Z,3.78
2022-10-27T13:03:27.095Z,6.28
2022-10-27T13:06:17.367Z,2.95
2022-10-27T13:09:12.494Z,4.25
2022-10-27T13:12:09.614Z,5.03
2022-10-27T13:15:03.221Z,5.68
2022-10-27T13:17:44.992Z,6.72
2022-10-27T13:20:23.737Z,5.00
2022-10-27T13:22:57.777Z,5.68
2022-10-27T13:25:36.279Z,3.22
2022-10-27T13:28:11.725Z,4.97
2022-10-27T13:30:44.175Z,3.65
2022-10-27T13:33:37.241Z,4.80
2022-10-27T13:36:20.013Z,4.55
2022-10-27T13:38:48.767Z,4.38
2022-10-27T13:41:50.818Z,3.88
2022-10-27T13:44:29.813Z,3.83
2022-10-27T13:47:17.942Z,3.42
2022-10-27T13:50:00.127Z,3.17
2022-10-27T13:52:32.835Z,4.57
2022-10-27T13:55:28.737Z,6.35
2022-10-27T13:58:28.243Z,6.13
2022-10-27T14:01:23.948Z,5.03
2022-10-27T14:04:16.143Z,5.38
2022-10-27T14:06:46.260Z,5.45
2022-10-27T14:09:37.349Z,4.47
2022-10-27T14:12:15.942Z,5.90
2022-10-27T14:14:45.632Z,3.97
2022-10-27T14:17:19.005Z,3.55
2022-10-27T14:19:54.335Z,4.85
2022-10-27T14:22:34.126Z,4.70
2022-10-27T14:25:19.253Z,4.05
2022-10-27T14:27:47.691Z,3.53
2022-10-27T14:30:20.946Z,4.45
2022-10-27T14:32:49.986Z,5.00
2022-10-27T14:35:23.572Z,5.88
2022-10-27T14:37:57.568Z,21.13
2022-10-27T14:40:35.068Z,32.88
2022-10-27T14:43:03.721Z,20.92
2022-10-27T14:45:33.771Z,20.58
2022-10-27T14:48:05.654Z,13.07
2022-10-27T14:50:35.776Z,21.33
2022-10-27T14:53:05.688Z,10.23
2022-10-27T14:55:36.765Z,8.68
2022-10-27T14:58:06.552Z,6.88
2022-10-27T15:00:37.812Z,8.35
2022-10-27T15:03:09.262Z,7.40
2022-10-27T15:05:40.246Z,5.60
2022-10-27T15:08:16.817Z,5.10
2022-10-27T15:10:47.582Z,5.57
2022-10-27T15:13:18.893Z,6.85
2022-10-27T15:15:50.848Z,3.35
2022-10-27T15:18:26.092Z,9.18
2022-10-27T15:20:54.744Z,6.18
2022-10-27T15:23:24.098Z,6.45
2022-10-27T15:25:58.420Z,5.15
2022-10-27T15:28:31.564Z,3.67
2022-10-27T15:31:03.063Z,4.55
2022-10-27T15:33:39.567Z,8.02
2022-10-27T15:36:24.328Z,5.43
2022-10-27T15:38:54.997Z,4.03
2022-10-27T15:41:25.518Z,5.50
2022-10-27T15:44:12.878Z,6.13
2022-10-27T15:46:42.488Z,4.65
2022-10-27T15:49:17.714Z,3.60
2022-10-27T15:51:49.465Z,4.97
2022-10-27T15:54:27.157Z,2.58
2022-10-27T15:56:56.863Z,3.95
2022-10-27T15:59:27.596Z,3.53
2022-10-27T16:02:04.126Z,4.78
2022-10-27T16:04:37.026Z,3.30
2022-10-27T16:07:29.649Z,5.32
2022-10-27T16:09:58.709Z,4.15
2022-10-27T16:12:38.829Z,5.07
2022-10-27T16:15:16.313Z,3.72
2022-10-27T16:17:49.098Z,2.83
2022-10-27T16:20:20.374Z,4.90
2022-10-27T16:22:49.156Z,7.15
2022-10-27T16:25:19.925Z,5.07
2022-10-27T16:27:49.199Z,3.85
2022-10-27T16:30:20.029Z,4.00
2022-10-27T16:32:53.296Z,5.53
2022-10-27T16:35:22.110Z,4.32
2022-10-27T16:37:50.688Z,4.65
2022-10-27T16:40:19.632Z,3.63
2022-10-27T16:42:51.448Z,5.85
2022-10-27T16:45:21.330Z,4.32
2022-10-27T16:47:53.734Z,6.15
2022-10-27T16:50:22.984Z,6.05
2022-10-27T16:52:53.365Z,5.40
2022-10-27T16:55:22.299Z,8.25
2022-10-27T16:57:50.725Z,6.97
2022-10-27T17:00:19.940Z,4.82
2022-10-27T17:02:52.257Z,4.88
2022-10-27T17:05:20.434Z,3.75
2022-10-27T17:07:50.398Z,3.55
2022-10-27T17:10:18.946Z,4.35
2022-10-27T17:12:47.622Z,6.88
2022-10-27T17:15:15.952Z,10.00
2022-10-27T17:17:44.893Z,4.72
2022-10-27T17:20:14.516Z,5.72
2022-10-27T17:22:45.198Z,8.60
2022-10-27T17:25:14.417Z,3.50
2022-10-27T17:27:42.578Z,5.07
2022-10-27T17:30:12.167Z,6.30
2022-10-27T17:32:40.340Z,6.57
2022-10-27T17:35:09.842Z,4.72
2022-10-27T17:37:39.394Z,5.45
2022-10-27T17:40:08.591Z,6.15
2022-10-27T17:42:36.704Z,5.47
2022-10-27T17:45:05.831Z,6.32
2022-10-27T17:47:34.622Z,3.47
2022-10-27T17:50:06.272Z,5.30
2022-10-27T17:52:38.647Z,3.97
2022-10-27T17:55:08.620Z,6.53
2022-10-27T17:57:37.250Z,5.47
2022-10-27T18:00:06.398Z,4.65
2022-10-27T18:02:35.054Z,6.82
2022-10-27T18:05:03.742Z,4.32
2022-10-27T18:07:32.778Z,5.07
2022-10-27T18:10:02.773Z,3.70
2022-10-27T18:12:31.396Z,4.00
2022-10-27T18:15:07.773Z,5.30
2022-10-27T18:17:50.218Z,5.00
2022-10-27T18:20:18.450Z,5.05
2022-10-27T18:22:47.077Z,4.00
2022-10-27T18:25:17.201Z,3.53
2022-10-27T18:27:45.334Z,4.18
2022-10-27T18:30:14.092Z,6.05
2022-10-27T18:32:42.663Z,2.95
2022-10-27T18:35:11.056Z,3.30
2022-10-27T18:37:39.613Z,4.88
2022-10-27T18:40:09.510Z,5.55
2022-10-27T18:42:39.483Z,5.32
2022-10-27T18:45:08.516Z,4.35
2022-10-27T18:47:36.660Z,4.05
2022-10-27T18:50:09.482Z,3.58
2022-10-27T18:52:38.607Z,8.57
2022-10-27T18:55:07.675Z,5.25
2022-10-27T18:57:35.873Z,5.00
2022-10-27T19:00:06.702Z,6.85
2022-10-27T19:02:34.951Z,6.72
2022-10-27T19:05:03.947Z,5.38
2022-10-27T19:07:32.047Z,3.63
2022-10-27T19:10:00.610Z,6.63
2022-10-27T19:12:28.986Z,6.82
2022-10-27T19:14:57.174Z,4.00
2022-10-27T19:17:26.785Z,4.80
2022-10-27T19:19:56.157Z,5.55
2022-10-27T19:22:24.898Z,4.78
2022-10-27T19:24:54.296Z,4.40
2022-10-27T19:27:22.969Z,4.20
2022-10-27T19:29:51.173Z,4.03
2022-10-27T19:32:19.775Z,4.68
2022-10-27T19:34:50.170Z,4.60
2022-10-27T19:37:18.975Z,6.05
2022-10-27T19:39:47.290Z,6.57
2022-10-27T19:42:15.504Z,5.60
2022-10-27T19:44:44.473Z,4.20
2022-10-27T19:47:12.693Z,6.95
2022-10-27T19:49:40.840Z,7.70
2022-10-27T19:52:10.805Z,5.63
2022-10-27T19:54:39.164Z,5.00
2022-10-27T19:57:07.911Z,5.43
2022-10-27T19:59:37.093Z,5.07
2022-10-27T20:02:06.549Z,5.47
2022-10-27T20:04:38.226Z,7.55
2022-10-27T20:07:07.059Z,6.57
2022-10-27T20:09:36.604Z,4.30
2022-10-27T20:12:04.890Z,5.32
2022-10-27T20:14:34.267Z,4.10
2022-10-27T20:17:02.419Z,3.97
2022-10-27T20:19:37.779Z,4.80
2022-10-27T20:22:06.477Z,4.50
2022-10-27T20:24:36.104Z,5.75
2022-10-27T20:27:04.635Z,5.13
2022-10-27T20:29:35.245Z,4.32
2022-10-27T20:32:03.753Z,6.38
2022-10-27T20:34:34.054Z,7.22
2022-10-27T20:37:05.898Z,4.88
2022-10-27T20:39:34.104Z,6.28
2022-10-27T20:42:03.713Z,4.95
2022-10-27T20:44:32.358Z,5.60
2022-10-27T20:47:00.506Z,6.90
2022-10-27T20:49:29.059Z,4.72
2022-10-27T20:51:57.684Z,6.57
2022-10-27T20:54:25.945Z,7.72
2022-10-27T20:56:55.163Z,6.40
2022-10-27T20:59:26.576Z,5.63
2022-10-27T21:01:56.272Z,6.43
2022-10-27T21:04:25.134Z,7.20
2022-10-27T21:06:53.804Z,4.82
2022-10-27T21:09:22.610Z,6.90
2022-10-27T21:11:51.224Z,5.95
2022-10-27T21:14:20.788Z,5.03
2022-10-27T21:16:52.229Z,5.82
2022-10-27T21:19:21.257Z,4.03
2022-10-27T21:21:49.500Z,4.85
2022-10-27T21:24:18.223Z,7.57
2022-10-27T21:26:47.118Z,3.45
2022-10-27T21:29:15.350Z,5.57
2022-10-27T21:31:46.296Z,5.18
2022-10-27T21:34:16.585Z,5.50
2022-10-27T21:36:44.778Z,5.65
2022-10-27T21:39:14.844Z,4.13
2022-10-27T21:41:43.047Z,6.53
2022-10-27T21:44:11.288Z,5.05
2022-10-27T21:46:39.548Z,6.43
2022-10-27T21:49:08.160Z,4.32
2022-10-27T21:51:37.683Z,7.57
2022-10-27T21:54:06.797Z,4.18
2022-10-27T21:56:36.926Z,5.93
2022-10-27T21:59:05.981Z,7.40
2022-10-27T22:01:34.284Z,4.38
2022-10-27T22:04:02.872Z,4.70
2022-10-27T22:06:32.704Z,9.38
2022-10-27T22:09:03.375Z,3.65
2022-10-27T22:11:33.144Z,7.38
2022-10-27T22:14:01.807Z,8.23
2022-10-27T22:16:31.111Z,13.05
2022-10-27T22:19:01.106Z,5.88
2022-10-27T22:21:32.005Z,6.43
2022-10-27T22:24:01.816Z,5.38
2022-10-27T22:26:30.800Z,4.22
2022-10-27T22:28:59.573Z,6.65
2022-10-27T22:31:31.552Z,6.55
2022-10-27T22:34:00.626Z,5.07
2022-10-27T22:36:29.071Z,4.43
2022-10-27T22:39:00.134Z,6.95
2022-10-27T22:41:30.678Z,6.05
2022-10-27T22:43:59.765Z,3.90
2022-10-27T22:46:29.373Z,4.97
2022-10-27T22:48:58.441Z,3.35
2022-10-27T22:51:28.816Z,4.15
2022-10-27T22:53:58.541Z,5.40
2022-10-27T22:56:30.137Z,4.18
2022-10-27T22:59:00.505Z,4.25
2022-10-27T23:01:31.551Z,4.65
2022-10-27T23:04:01.634Z,4.95
2022-10-27T23:06:31.859Z,6.88
2022-10-27T23:09:04.396Z,4.05
2022-10-27T23:11:36.412Z,6.32
2022-10-27T23:14:05.696Z,7.72
2022-10-27T23:16:35.830Z,4.53
2022-10-27T23:19:05.401Z,4.20
2022-10-27T23:21:34.852Z,7.05
2022-10-27T23:24:04.005Z,4.30
2022-10-27T23:26:35.254Z,5.68
2022-10-27T23:29:07.309Z,4.10
2022-10-27T23:31:36.199Z,4.97
2022-10-27T23:34:07.437Z,4.18
2022-10-27T23:36:36.867Z,5.03
2022-10-27T23:39:05.383Z,5.72
2022-10-27T23:41:35.495Z,3.90
2022-10-27T23:44:03.830Z,4.22
2022-10-27T23:46:32.555Z,6.18
2022-10-27T23:49:00.818Z,4.53
2022-10-27T23:51:29.323Z,7.50
2022-10-27T23:53:58.137Z,8.00
2022-10-27T23:56:26.952Z,3.92
2022-10-27T23:58:58.528Z,5.85
